createdAt,value
2022-11-22T00:00:25.192Z,10.87
2022-11-22T00:02:51.807Z,9.60
2022-11-22T00:05:18.375Z,11.50
2022-11-22T00:07:44.994Z,9.77
2022-11-22T00:10:12.981Z,10.33
2022-11-22T00:12:40.045Z,10.07
2022-11-22T00:15:07.630Z,10.23
2022-11-22T00:17:34.746Z,9.97
2022-11-22T00:20:01.320Z,10.87
2022-11-22T00:22:27.927Z,11.10
2022-11-22T00:24:54.594Z,11.40
2022-11-22T00:27:21.383Z,12.00
2022-11-22T00:29:47.958Z,10.83
2022-11-22T00:32:14.509Z,11.73
2022-11-22T00:34:41.105Z,12.47
2022-11-22T00:37:07.862Z,10.77
2022-11-22T00:39:34.405Z,11.63
2022-11-22T00:42:00.948Z,12.00
2022-11-22T00:44:27.497Z,12.63
2022-11-22T00:46:54.263Z,12.70
2022-11-22T00:49:20.856Z,11.77
2022-11-22T00:51:47.411Z,12.20
2022-11-22T00:54:13.951Z,11.63
2022-11-22T00:56:40.524Z,11.50
2022-11-22T00:59:07.065Z,12.03
2022-11-22T01:01:33.735Z,12.63
2022-11-22T01:04:00.584Z,12.17
2022-11-22T01:06:27.154Z,12.00
2022-11-22T01:08:53.783Z,12.13
2022-11-22T01:11:20.463Z,11.80
2022-11-22T01:13:47.018Z,12.17
2022-11-22T01:16:14.626Z,12.27
2022-11-22T01:18:41.298Z,12.03
2022-11-22T01:21:08.527Z,12.50
2022-11-22T01:23:35.872Z,11.57
2022-11-22T01:26:02.471Z,12.33
2022-11-22T01:28:29.115Z,12.47
2022-11-22T01:30:55.853Z,13.27
2022-11-22T01:33:22.563Z,12.60
2022-11-22T01:35:49.242Z,12.23
2022-11-22T01:38:15.832Z,13.03
2022-11-22T01:40:42.498Z,12.80
2022-11-22T01:43:23.711Z,13.00
2022-11-22T01:45:58.815Z,12.00
2022-11-22T01:48:56.262Z,12.40
2022-11-22T01:51:29.730Z,11.90
2022-11-22T01:54:00.152Z,11.73
2022-11-22T01:56:29.566Z,12.47
2022-11-22T01:59:02.905Z,11.80
2022-11-22T02:01:30.045Z,11.93
2022-11-22T02:04:00.568Z,12.23
2022-11-22T02:06:44.364Z,12.60
2022-11-22T02:09:12.795Z,11.93
2022-11-22T02:11:45.908Z,11.90
2022-11-22T02:14:13.714Z,12.23
2022-11-22T02:16:41.670Z,11.97
2022-11-22T02:19:18.066Z,12.00
2022-11-22T02:21:48.872Z,11.93
2022-11-22T02:24:26.443Z,12.60
2022-11-22T02:26:53.003Z,13.13
2022-11-22T02:29:20.156Z,12.00
2022-11-22T02:31:47.454Z,12.43
2022-11-22T02:34:14.523Z,12.17
2022-11-22T02:36:48.592Z,12.17
2022-11-22T02:39:19.681Z,11.87
2022-11-22T02:41:47.726Z,12.83
2022-11-22T02:44:15.269Z,12.37
2022-11-22T02:46:55.226Z,11.33
2022-11-22T02:49:24.248Z,11.10
2022-11-22T02:51:52.455Z,11.00
2022-11-22T02:54:19.231Z,11.07
2022-11-22T02:56:46.297Z,12.77
2022-11-22T02:59:12.943Z,12.20
2022-11-22T03:01:40.259Z,12.07
2022-11-22T03:04:06.843Z,12.87
2022-11-22T03:06:33.408Z,11.67
2022-11-22T03:08:59.970Z,12.27
2022-11-22T03:11:26.603Z,12.97
2022-11-22T03:13:53.511Z,12.67
2022-11-22T03:16:20.079Z,11.70
2022-11-22T03:18:46.652Z,12.27
2022-11-22T03:21:13.194Z,12.73
2022-11-22T03:23:39.978Z,11.90
2022-11-22T03:26:09.029Z,12.27
2022-11-22T03:28:35.716Z,12.40
2022-11-22T03:31:05.295Z,12.33
2022-11-22T03:33:31.872Z,12.13
2022-11-22T03:35:58.498Z,12.37
2022-11-22T03:38:25.085Z,13.10
2022-11-22T03:40:51.718Z,12.67
2022-11-22T03:43:18.283Z,12.40
2022-11-22T03:45:48.422Z,13.03
2022-11-22T03:48:14.985Z,12.40
2022-11-22T03:50:41.608Z,12.90
2022-11-22T03:53:08.911Z,13.30
2022-11-22T03:55:35.470Z,12.60
2022-11-22T03:58:02.135Z,12.67
2022-11-22T04:00:28.993Z,12.50
2022-11-22T04:02:55.537Z,12.60
2022-11-22T04:05:22.180Z,12.57
2022-11-22T04:07:49.060Z,12.83
2022-11-22T04:10:19.349Z,12.67
2022-11-22T04:12:48.962Z,10.47
2022-11-22T04:15:15.582Z,13.40
2022-11-22T04:17:45.069Z,12.97
2022-11-22T04:20:44.996Z,12.33
2022-11-22T04:23:13.018Z,13.40
2022-11-22T04:25:41.777Z,12.10
2022-11-22T04:28:09.520Z,12.23
2022-11-22T04:30:55.010Z,14.10
2022-11-22T04:33:22.615Z,13.47
2022-11-22T04:35:49.673Z,13.73
2022-11-22T04:38:17.300Z,12.90
2022-11-22T04:40:44.371Z,14.20
2022-11-22T04:43:45.102Z,14.37
2022-11-22T04:46:12.320Z,13.40
2022-11-22T04:48:39.518Z,14.37
2022-11-22T04:51:25.648Z,13.87
2022-11-22T04:53:52.621Z,13.73
2022-11-22T04:56:19.253Z,14.73
2022-11-22T04:58:45.794Z,13.80
2022-11-22T05:01:12.452Z,14.53
2022-11-22T05:03:39.026Z,14.80
2022-11-22T05:06:06.061Z,13.67
2022-11-22T05:08:32.840Z,14.57
2022-11-22T05:10:59.767Z,15.07
2022-11-22T05:13:38.461Z,14.77
2022-11-22T05:16:07.147Z,14.67
2022-11-22T05:18:34.173Z,13.53
2022-11-22T05:21:09.235Z,15.10
2022-11-22T05:23:54.309Z,14.80
2022-11-22T05:26:32.489Z,14.70
2022-11-22T05:29:02.600Z,14.93
2022-11-22T05:31:29.378Z,15.00
2022-11-22T05:33:57.226Z,15.73
2022-11-22T05:36:24.683Z,15.00
2022-11-22T05:38:51.572Z,15.93
2022-11-22T05:41:19.020Z,15.70
2022-11-22T05:43:45.789Z,16.17
2022-11-22T05:46:13.698Z,15.57
2022-11-22T05:48:42.314Z,15.77
2022-11-22T05:51:17.639Z,15.43
2022-11-22T05:53:44.854Z,16.73
2022-11-22T05:56:13.765Z,16.03
2022-11-22T05:58:41.569Z,15.50
2022-11-22T06:01:13.253Z,15.03
2022-11-22T06:03:39.863Z,15.33
2022-11-22T06:06:07.336Z,14.53
2022-11-22T06:08:36.386Z,15.57
2022-11-22T06:11:06.576Z,16.50
2022-11-22T06:13:37.647Z,16.03
2022-11-22T06:16:05.550Z,14.87
2022-11-22T06:18:32.678Z,15.27
2022-11-22T06:21:04.446Z,14.67
2022-11-22T06:23:31.188Z,13.97
2022-11-22T06:26:20.446Z,15.93
2022-11-22T06:28:48.195Z,14.57
2022-11-22T06:31:20.474Z,15.77
2022-11-22T06:33:47.438Z,15.07
2022-11-22T06:36:16.506Z,16.63
2022-11-22T06:38:44.086Z,16.00
2022-11-22T06:41:13.526Z,15.17
2022-11-22T06:43:46.816Z,17.50
2022-11-22T06:46:16.520Z,16.70
2022-11-22T06:48:43.387Z,15.77
2022-11-22T06:51:15.938Z,15.93
2022-11-22T06:53:47.861Z,17.00
2022-11-22T06:56:27.180Z,14.70
2022-11-22T06:58:54.374Z,15.53
2022-11-22T07:01:26.480Z,15.50
2022-11-22T07:03:57.982Z,16.10
2022-11-22T07:06:27.300Z,16.43
2022-11-22T07:08:54.340Z,16.47
2022-11-22T07:11:23.327Z,16.77
2022-11-22T07:13:50.699Z,16.13
2022-11-22T07:16:19.590Z,16.37
2022-11-22T07:18:46.601Z,16.23
2022-11-22T07:21:15.566Z,14.50
2022-11-22T07:23:43.782Z,15.13
2022-11-22T07:26:11.238Z,15.50
2022-11-22T07:28:38.074Z,15.83
2022-11-22T07:31:06.907Z,16.27
2022-11-22T07:33:34.117Z,16.03
2022-11-22T07:36:22.905Z,16.20
2022-11-22T07:38:50.217Z,16.03
2022-11-22T07:41:18.128Z,15.63
2022-11-22T07:43:45.918Z,14.73
2022-11-22T07:46:31.256Z,15.37
2022-11-22T07:48:59.469Z,15.70
2022-11-22T07:51:26.295Z,14.83
2022-11-22T07:53:53.786Z,14.20
2022-11-22T07:56:20.349Z,15.57
2022-11-22T07:58:47.053Z,15.07
2022-11-22T08:01:16.625Z,14.87
2022-11-22T08:03:43.909Z,14.67
2022-11-22T08:06:12.625Z,15.50
2022-11-22T08:08:39.229Z,14.80
2022-11-22T08:11:06.836Z,14.20
2022-11-22T08:13:34.469Z,15.90
2022-11-22T08:16:13.307Z,11.73
2022-11-22T08:18:41.241Z,15.57
2022-11-22T08:21:14.311Z,15.00
2022-11-22T08:23:41.870Z,14.77
2022-11-22T08:26:12.291Z,15.33
2022-11-22T08:28:39.662Z,16.07
2022-11-22T08:31:09.468Z,15.03
2022-11-22T08:33:36.685Z,15.30
2022-11-22T08:36:03.831Z,15.53
2022-11-22T08:38:30.561Z,15.70
2022-11-22T08:40:57.363Z,16.37
2022-11-22T08:43:24.062Z,15.30
2022-11-22T08:45:55.985Z,16.57
2022-11-22T08:48:23.635Z,14.30
2022-11-22T08:51:05.159Z,15.10
2022-11-22T08:53:37.095Z,16.67
2022-11-22T08:56:06.244Z,17.07
2022-11-22T08:58:37.097Z,16.03
2022-11-22T09:01:11.939Z,16.40
2022-11-22T09:03:38.665Z,15.67
2022-11-22T09:09:08.684Z,16.13
2022-11-22T09:11:40.687Z,16.20
2022-11-22T09:14:07.225Z,16.63
2022-11-22T09:16:33.826Z,15.90
2022-11-22T09:19:00.549Z,16.70
2022-11-22T09:21:27.178Z,18.10
2022-11-22T09:23:54.543Z,17.60
2022-11-22T09:26:24.408Z,19.13
2022-11-22T09:28:53.004Z,17.90
2022-11-22T09:31:21.512Z,17.37
2022-11-22T09:33:49.453Z,17.27
2022-11-22T09:36:18.957Z,17.47
2022-11-22T09:38:45.765Z,18.00
2022-11-22T09:41:40.365Z,17.60
2022-11-22T09:44:31.981Z,17.40
2022-11-22T09:47:13.432Z,17.50
2022-11-22T09:50:05.433Z,17.97
2022-11-22T09:52:40.273Z,16.97
2022-11-22T09:55:20.005Z,18.17
2022-11-22T09:57:57.017Z,18.20
2022-11-22T10:00:26.406Z,17.53
2022-11-22T10:03:18.222Z,19.20
2022-11-22T10:05:53.642Z,18.20
2022-11-22T10:09:14.708Z,17.33
2022-11-22T10:12:02.527Z,17.27
2022-11-22T10:14:45.804Z,18.23
2022-11-22T10:17:43.575Z,18.33
2022-11-22T10:20:19.183Z,17.67
2022-11-22T10:22:47.453Z,17.63
2022-11-22T10:25:39.858Z,18.30
2022-11-22T10:28:16.939Z,18.67
2022-11-22T10:30:53.543Z,18.57
2022-11-22T10:33:29.487Z,17.67
2022-11-22T10:36:21.246Z,18.23
2022-11-22T10:39:13.587Z,17.73
2022-11-22T10:42:04.462Z,17.57
2022-11-22T10:45:11.088Z,18.57
2022-11-22T10:48:21.561Z,17.43
2022-11-22T10:51:11.861Z,17.93
2022-11-22T10:53:53.056Z,19.27
2022-11-22T10:56:51.393Z,17.43
2022-11-22T10:59:46.774Z,18.33
2022-11-22T11:02:44.756Z,17.27
2022-11-22T11:05:17.648Z,18.10
2022-11-22T11:07:48.964Z,18.53
2022-11-22T11:10:29.177Z,18.00
2022-11-22T11:13:06.298Z,19.17
2022-11-22T11:15:55.805Z,18.30
2022-11-22T11:18:39.365Z,17.50
2022-11-22T11:21:07.745Z,17.30
2022-11-22T11:23:34.873Z,17.73
2022-11-22T11:26:31.771Z,17.10
2022-11-22T11:29:16.868Z,17.97
2022-11-22T11:31:51.823Z,17.83
2022-11-22T11:34:27.768Z,17.13
2022-11-22T11:36:57.353Z,18.03
2022-11-22T11:39:29.538Z,18.73
2022-11-22T11:41:56.821Z,19.00
2022-11-22T11:44:34.631Z,18.10
2022-11-22T11:47:02.044Z,18.63
2022-11-22T11:49:34.496Z,18.03
2022-11-22T11:52:08.287Z,17.87
2022-11-22T11:54:44.378Z,18.00
2022-11-22T11:57:14.635Z,18.03
2022-11-22T11:59:41.131Z,18.87
2022-11-22T12:02:17.577Z,17.93
2022-11-22T12:04:53.212Z,18.77
2022-11-22T12:07:40.377Z,18.70
2022-11-22T12:10:43.957Z,18.60
2022-11-22T12:13:27.112Z,17.47
2022-11-22T12:16:03.835Z,18.13
2022-11-22T12:18:50.296Z,17.83
2022-11-22T12:21:35.551Z,17.37
2022-11-22T12:27:02.605Z,17.70
2022-11-22T12:29:33.950Z,18.30
2022-11-22T12:32:14.941Z,17.10
2022-11-22T12:34:55.402Z,17.43
2022-11-22T12:37:27.985Z,16.40
2022-11-22T12:39:58.543Z,17.27
2022-11-22T12:42:42.650Z,18.63
2022-11-22T12:45:23.407Z,16.80
2022-11-22T12:47:50.822Z,17.27
2022-11-22T12:50:36.657Z,18.30
2022-11-22T12:53:10.033Z,18.30
2022-11-22T12:55:59.874Z,17.67
2022-11-22T12:58:57.882Z,18.27
2022-11-22T13:01:30.408Z,19.17
2022-11-22T13:04:11.779Z,18.10
2022-11-22T13:07:15.296Z,18.43
2022-11-22T13:09:49.373Z,18.63
2022-11-22T13:12:24.815Z,17.27
2022-11-22T13:14:55.710Z,18.37
2022-11-22T13:17:24.452Z,18.07
2022-11-22T13:20:05.606Z,18.07
2022-11-22T13:23:02.384Z,17.77
2022-11-22T13:25:34.313Z,16.87
2022-11-22T13:28:04.978Z,18.23
2022-11-22T13:30:39.563Z,17.37
2022-11-22T13:33:22.490Z,17.63
2022-11-22T13:35:49.153Z,17.47
2022-11-22T13:38:18.041Z,17.70
2022-11-22T13:40:50.475Z,17.53
2022-11-22T13:43:22.329Z,17.20
2022-11-22T13:45:51.652Z,17.93
2022-11-22T13:48:40.131Z,18.53
2022-11-22T13:51:12.514Z,19.07
2022-11-22T13:53:46.379Z,18.03
2022-11-22T13:56:15.879Z,16.70
2022-11-22T13:58:51.018Z,17.37
2022-11-22T14:01:36.586Z,16.80
2022-11-22T14:04:40.214Z,17.23
2022-11-22T14:07:23.400Z,17.33
2022-11-22T14:09:53.316Z,17.73
2022-11-22T14:12:41.450Z,16.33
2022-11-22T14:15:34.526Z,17.30
2022-11-22T14:18:20.507Z,17.17
2022-11-22T14:21:08.498Z,16.87
2022-11-22T14:24:05.321Z,16.93
2022-11-22T14:26:57.835Z,17.27
2022-11-22T14:29:53.898Z,18.73
2022-11-22T14:32:25.931Z,17.10
2022-11-22T14:35:04.700Z,18.20
2022-11-22T14:37:34.662Z,17.43
2022-11-22T14:40:07.122Z,17.10
2022-11-22T14:42:36.677Z,17.50
2022-11-22T14:45:10.981Z,18.03
2022-11-22T14:48:04.046Z,18.10
2022-11-22T14:50:42.796Z,17.57
2022-11-22T14:53:21.289Z,17.80
2022-11-22T14:55:49.132Z,18.40
2022-11-22T14:58:22.977Z,17.27
2022-11-22T15:01:14.909Z,18.20
2022-11-22T15:09:10.830Z,18.23
2022-11-22T15:09:19.183Z,18.20
2022-11-22T15:10:49.400Z,18.47
2022-11-22T15:13:37.320Z,17.47
2022-11-22T15:59:41.001Z,19.53
2022-11-22T16:02:15.920Z,18.70
2022-11-22T16:06:04.506Z,22.13
2022-11-22T16:07:47.106Z,21.97
2022-11-22T16:10:37.412Z,22.17
2022-11-22T16:13:14.157Z,21.07
2022-11-22T16:15:40.828Z,21.30
2022-11-22T16:18:14.720Z,20.90
2022-11-22T16:20:42.737Z,23.30
2022-11-22T16:23:09.300Z,19.50
2022-11-22T16:25:38.345Z,18.50
2022-11-22T16:28:28.835Z,18.83
2022-11-22T16:31:07.154Z,19.17
2022-11-22T16:33:34.015Z,18.87
2022-11-22T16:36:01.710Z,17.27
2022-11-22T16:38:29.150Z,18.30
2022-11-22T16:40:58.052Z,18.87
2022-11-22T16:43:26.693Z,19.17
2022-11-22T16:45:53.559Z,19.50
2022-11-22T16:48:32.002Z,18.93
2022-11-22T16:51:03.201Z,19.20
2022-11-22T16:53:38.150Z,19.27
2022-11-22T16:56:04.901Z,20.50
2022-11-22T16:58:31.517Z,18.80
2022-11-22T17:00:58.289Z,19.97
2022-11-22T17:03:33.624Z,20.30
2022-11-22T17:06:00.261Z,19.90
2022-11-22T17:08:26.798Z,18.27
2022-11-22T17:10:53.560Z,19.33
2022-11-22T17:13:25.241Z,18.80
2022-11-22T17:15:53.436Z,18.63
2022-11-22T17:18:20.562Z,19.13
2022-11-22T17:20:48.299Z,18.97
2022-11-22T17:23:36.535Z,20.07
2022-11-22T17:26:04.106Z,19.73
2022-11-22T17:28:31.294Z,19.93
2022-11-22T17:30:59.492Z,19.60
2022-11-22T17:33:26.119Z,18.97
2022-11-22T17:35:53.401Z,19.47
2022-11-22T17:38:20.117Z,20.33
2022-11-22T17:40:46.804Z,20.37
2022-11-22T17:43:13.534Z,20.27
2022-11-22T17:45:43.649Z,19.27
2022-11-22T17:48:13.245Z,20.83
2022-11-22T17:50:39.942Z,20.60
2022-11-22T17:53:06.601Z,20.83
2022-11-22T17:55:48.268Z,20.33
2022-11-22T17:58:19.825Z,19.50
2022-11-22T18:00:46.410Z,20.43
2022-11-22T18:03:13.023Z,20.10
2022-11-22T18:05:39.618Z,21.60
2022-11-22T18:08:06.343Z,21.83
2022-11-22T18:10:32.912Z,19.70
2022-11-22T18:13:20.140Z,19.40
2022-11-22T18:15:46.122Z,19.23
2022-11-22T18:18:27.247Z,19.43
2022-11-22T18:20:59.234Z,19.13
2022-11-22T18:23:30.615Z,18.70
2022-11-22T18:26:17.036Z,19.37
2022-11-22T18:29:02.492Z,18.87
2022-11-22T18:31:51.195Z,19.77
2022-11-22T18:34:18.709Z,18.47
2022-11-22T18:37:03.505Z,18.90
2022-11-22T18:42:23.460Z,18.37
2022-11-22T18:44:51.003Z,19.47
2022-11-22T18:47:17.662Z,19.13
2022-11-22T18:49:44.300Z,18.43
2022-11-22T18:52:13.497Z,19.23
2022-11-22T18:54:43.302Z,19.53
2022-11-22T18:57:09.922Z,20.27
2022-11-22T18:59:36.571Z,19.47
2022-11-22T19:02:03.115Z,19.10
2022-11-22T19:04:30.014Z,20.40
2022-11-22T19:06:56.783Z,19.90
2022-11-22T19:09:25.978Z,21.23
2022-11-22T19:11:58.424Z,19.67
2022-11-22T19:14:28.896Z,19.93
2022-11-22T19:16:56.118Z,19.90
2022-11-22T19:19:24.204Z,20.43
2022-11-22T19:21:50.746Z,19.77
2022-11-22T19:24:17.509Z,20.27
2022-11-22T19:26:44.264Z,19.40
2022-11-22T19:29:10.830Z,19.73
2022-11-22T19:31:37.757Z,19.77
2022-11-22T19:34:04.393Z,18.73
2022-11-22T19:36:33.809Z,20.53
2022-11-22T19:39:02.474Z,20.40
2022-11-22T19:41:29.068Z,20.00
2022-11-22T19:43:56.675Z,19.13
2022-11-22T19:46:26.056Z,19.90
2022-11-22T19:48:55.191Z,19.73
2022-11-22T19:51:22.586Z,20.40
2022-11-22T19:53:53.331Z,19.63
2022-11-22T19:56:20.486Z,18.90
2022-11-22T19:58:52.190Z,19.33
2022-11-22T20:01:19.899Z,21.23
2022-11-22T20:03:50.458Z,19.67
2022-11-22T20:06:17.113Z,19.73
2022-11-22T20:08:44.228Z,19.30
2022-11-22T20:11:13.641Z,19.20
2022-11-22T20:13:45.605Z,19.63
2022-11-22T20:16:21.874Z,19.57
2022-11-22T20:18:55.642Z,19.00
2022-11-22T20:21:22.768Z,19.97
2022-11-22T20:23:50.686Z,19.67
2022-11-22T20:26:18.202Z,19.13
2022-11-22T20:28:45.772Z,20.40
2022-11-22T20:31:19.954Z,19.53
2022-11-22T20:33:49.624Z,19.03
2022-11-22T20:36:24.773Z,19.70
2022-11-22T20:38:52.072Z,19.17
2022-11-22T20:41:21.153Z,20.57
2022-11-22T20:43:49.413Z,19.90
2022-11-22T20:46:17.985Z,19.83
2022-11-22T20:48:46.402Z,18.93
2022-11-22T20:51:21.041Z,19.23
2022-11-22T20:53:47.871Z,19.93
2022-11-22T20:56:16.659Z,19.13
2022-11-22T20:58:43.841Z,19.40
2022-11-22T21:01:14.162Z,19.23
2022-11-22T21:03:41.068Z,19.93
2022-11-22T21:06:07.961Z,19.83
2022-11-22T21:08:34.626Z,20.13
2022-11-22T21:11:12.720Z,19.30
2022-11-22T21:13:39.788Z,20.57
2022-11-22T21:16:25.190Z,20.03
2022-11-22T21:18:55.496Z,19.07
2022-11-22T21:21:24.236Z,19.70
2022-11-22T21:23:55.500Z,20.17
2022-11-22T21:26:23.370Z,20.43
2022-11-22T21:28:50.718Z,19.87
2022-11-22T21:31:21.395Z,19.60
2022-11-22T21:33:49.299Z,19.13
2022-11-22T21:36:17.591Z,20.23
2022-11-22T21:38:45.651Z,20.20
2022-11-22T21:44:06.562Z,19.97
2022-11-22T21:46:33.366Z,19.93
2022-11-22T21:49:00.118Z,20.73
2022-11-22T21:51:26.900Z,19.83
2022-11-22T21:53:58.533Z,21.07
2022-11-22T21:56:25.781Z,20.70
2022-11-22T21:58:52.502Z,21.50
2022-11-22T22:01:19.176Z,21.80
2022-11-22T22:03:45.825Z,20.53
2022-11-22T22:06:12.471Z,19.47
2022-11-22T22:08:40.728Z,21.03
2022-11-22T22:11:07.909Z,20.77
2022-11-22T22:13:34.500Z,20.50
2022-11-22T22:16:04.033Z,20.20
2022-11-22T22:18:36.040Z,20.87
2022-11-22T22:21:05.352Z,20.67
2022-11-22T22:23:33.498Z,20.53
2022-11-22T22:26:02.045Z,20.50
2022-11-22T22:28:30.543Z,20.37
2022-11-22T22:31:11.579Z,21.53
2022-11-22T22:33:40.709Z,20.70
2022-11-22T22:36:08.585Z,20.93
2022-11-22T22:38:35.364Z,21.60
2022-11-22T22:41:03.714Z,20.23
2022-11-22T22:43:33.000Z,21.67
2022-11-22T22:46:06.726Z,21.03
2022-11-22T22:48:33.925Z,20.27
2022-11-22T22:51:17.426Z,20.60
2022-11-22T22:53:44.568Z,21.13
2022-11-22T22:56:12.258Z,21.10
2022-11-22T22:58:38.837Z,20.70
2022-11-22T23:01:19.346Z,19.67
2022-11-22T23:03:54.199Z,21.13
2022-11-22T23:06:22.280Z,20.97
2022-11-22T23:08:50.526Z,21.57
2022-11-22T23:11:19.452Z,21.13
2022-11-22T23:13:46.055Z,21.37
2022-11-22T23:16:14.119Z,21.20
2022-11-22T23:18:43.005Z,21.63
2022-11-22T23:21:12.812Z,21.67
2022-11-22T23:23:39.612Z,20.50
2022-11-22T23:26:09.328Z,20.83
2022-11-22T23:28:35.874Z,20.67
2022-11-22T23:31:11.881Z,21.13
2022-11-22T23:33:39.017Z,21.07
2022-11-22T23:36:08.117Z,21.90
2022-11-22T23:38:35.297Z,19.83
2022-11-22T23:41:02.202Z,20.07
2022-11-22T23:43:29.077Z,21.27
2022-11-22T23:45:55.929Z,20.43
2022-11-22T23:48:22.503Z,21.00
2022-11-22T23:50:49.071Z,20.97
2022-11-22T23:53:15.727Z,20.10
2022-11-22T23:55:42.634Z,20.53
2022-11-22T23:58:09.270Z,21.60
